Church Street, Georgia
Current Conditions -  °F | °C
As of 1:52 AM on Wednesday 22 Oct 2014 (Local Time) from KATL Reporting Station
Clear Clear  
Wind Chill: 12°   Ceiling: Unl
Heat Index: 12°   Visibility: 10mi
Dew Point:   Wind: 0mph
Humidity: 77%   Direction: NA
Pressure: 30.02"   Gusts: NA
Location:  33.559°N, 84.4436°W
Report Text: KATL 220552Z 00000KT 10SM CLR 12/08 A3002 RMK AO2 SLP162 T01170078 10189 20117 52000
Loading
Personal Weather Stations






























Interactive Weather Map
Tropical Storm Tracking
New forecast layout! Learn more

10-Day Weather Forecast

Advertisements
Track Severe Weather on mobile